createdAt,value
2023-05-10T00:00:07.371Z,246.08
2023-05-10T00:01:07.379Z,248.69
2023-05-10T00:02:07.522Z,249.10
2023-05-10T00:03:07.551Z,248.01
2023-05-10T00:04:07.531Z,246.34
2023-05-10T00:05:07.489Z,248.33
2023-05-10T00:06:07.539Z,247.03
2023-05-10T00:07:07.580Z,247.64
2023-05-10T00:08:07.617Z,247.30
2023-05-10T00:09:07.592Z,247.88
2023-05-10T00:10:07.621Z,246.01
2023-05-10T00:11:07.656Z,246.65
2023-05-10T00:12:07.712Z,246.01
2023-05-10T00:13:07.746Z,246.30
2023-05-10T00:14:07.710Z,246.03
2023-05-10T00:15:07.769Z,246.67
2023-05-10T00:16:07.895Z,249.04
2023-05-10T00:17:07.793Z,245.27
2023-05-10T00:18:07.899Z,246.75
2023-05-10T00:19:07.858Z,246.15
2023-05-10T00:20:07.881Z,246.17
2023-05-10T00:21:07.909Z,246.19
2023-05-10T00:22:07.965Z,245.20
2023-05-10T00:23:07.968Z,246.72
2023-05-10T00:24:07.982Z,248.22
2023-05-10T00:25:08.035Z,247.93
2023-05-10T00:26:08.092Z,248.06
2023-05-10T00:27:08.077Z,249.96
2023-05-10T00:28:08.160Z,246.91
2023-05-10T00:29:08.153Z,245.82
2023-05-10T00:30:08.174Z,246.96
2023-05-10T00:31:08.183Z,247.20
2023-05-10T00:32:08.244Z,249.31
2023-05-10T00:33:08.339Z,247.20
2023-05-10T00:34:08.269Z,245.95
2023-05-10T00:35:08.288Z,244.89
2023-05-10T00:36:08.403Z,243.88
2023-05-10T00:37:08.368Z,244.74
2023-05-10T00:38:08.382Z,244.85
2023-05-10T00:39:08.378Z,245.24
2023-05-10T00:40:08.412Z,246.78
2023-05-10T00:41:08.429Z,247.18
2023-05-10T00:42:08.450Z,246.00
2023-05-10T00:43:08.517Z,246.16
2023-05-10T00:44:08.520Z,245.33
2023-05-10T00:45:08.569Z,244.13
2023-05-10T00:46:08.626Z,247.33
2023-05-10T00:47:08.600Z,246.02
2023-05-10T00:48:08.716Z,244.80
2023-05-10T00:49:08.701Z,246.34
2023-05-10T00:50:08.721Z,245.49
2023-05-10T00:51:08.739Z,244.52
2023-05-10T00:52:08.765Z,244.02
2023-05-10T00:53:08.762Z,244.94
2023-05-10T00:54:08.846Z,245.41
2023-05-10T00:55:08.839Z,244.92
2023-05-10T00:56:08.871Z,242.88
2023-05-10T00:57:08.919Z,243.51
2023-05-10T00:58:08.966Z,244.07
2023-05-10T00:59:08.948Z,243.06
2023-05-10T01:00:08.979Z,244.31
2023-05-10T01:01:09.026Z,240.65
2023-05-10T01:02:09.089Z,244.14
2023-05-10T01:03:09.173Z,242.08
2023-05-10T01:04:09.212Z,241.99
2023-05-10T01:05:09.221Z,242.09
2023-05-10T01:06:09.166Z,243.11
2023-05-10T01:07:09.192Z,241.87
2023-05-10T01:08:09.265Z,244.41
2023-05-10T01:09:09.320Z,243.66
2023-05-10T01:10:09.293Z,243.68
2023-05-10T01:11:09.319Z,243.38
2023-05-10T01:12:09.428Z,243.82
2023-05-10T01:13:09.419Z,241.81
2023-05-10T01:14:09.466Z,242.44
2023-05-10T01:15:09.473Z,241.13
2023-05-10T01:16:09.525Z,245.42
2023-05-10T01:17:09.528Z,242.59
2023-05-10T01:18:09.599Z,240.98
2023-05-10T01:19:09.620Z,244.43
2023-05-10T01:20:09.631Z,243.01
2023-05-10T01:21:09.650Z,243.05
2023-05-10T01:22:09.675Z,241.69
2023-05-10T01:23:09.715Z,242.70
2023-05-10T01:24:09.748Z,242.38
2023-05-10T01:25:09.764Z,242.58
2023-05-10T01:26:09.818Z,241.01
2023-05-10T01:27:09.853Z,242.46
2023-05-10T01:28:09.887Z,245.67
2023-05-10T01:29:09.933Z,241.54
2023-05-10T01:30:15.938Z,245.72
2023-05-10T01:31:10.980Z,245.32
2023-05-10T01:32:09.940Z,241.27
2023-05-10T01:33:09.978Z,242.40
2023-05-10T01:34:09.931Z,241.93
2023-05-10T01:35:09.911Z,239.41
2023-05-10T01:36:09.958Z,239.71
2023-05-10T01:37:09.904Z,242.74
2023-05-10T01:38:09.905Z,239.19
2023-05-10T01:39:09.883Z,240.17
2023-05-10T01:40:09.878Z,240.31
2023-05-10T01:41:09.907Z,240.88
2023-05-10T01:42:09.881Z,240.24
2023-05-10T01:43:09.868Z,239.82
2023-05-10T01:44:09.845Z,237.13
2023-05-10T01:45:09.894Z,239.45
2023-05-10T01:46:09.935Z,238.26
2023-05-10T01:47:09.959Z,235.20
2023-05-10T01:48:10.029Z,235.94
2023-05-10T01:49:10.025Z,236.30
2023-05-10T01:50:10.064Z,232.41
2023-05-10T01:51:10.108Z,237.25
2023-05-10T01:52:10.139Z,238.00
2023-05-10T01:53:10.182Z,234.55
2023-05-10T01:54:10.212Z,236.25
2023-05-10T01:55:10.250Z,237.02
2023-05-10T01:56:10.308Z,235.33
2023-05-10T01:57:10.324Z,234.80
2023-05-10T01:58:10.374Z,232.77
2023-05-10T01:59:10.409Z,233.80
2023-05-10T02:00:10.427Z,234.67
2023-05-10T02:01:10.515Z,234.56
2023-05-10T02:02:10.519Z,233.06
2023-05-10T02:03:10.608Z,234.86
2023-05-10T02:04:10.733Z,233.00
2023-05-10T02:05:10.609Z,232.74
2023-05-10T02:06:10.646Z,231.77
2023-05-10T02:07:10.691Z,230.09
2023-05-10T02:08:10.739Z,233.05
2023-05-10T02:09:10.754Z,233.49
2023-05-10T02:10:10.806Z,232.83
2023-05-10T02:11:10.846Z,235.20
2023-05-10T02:12:10.874Z,231.75
2023-05-10T02:13:10.964Z,232.51
2023-05-10T02:14:10.979Z,234.96
2023-05-10T02:15:11.011Z,231.99
2023-05-10T02:16:11.091Z,229.78
2023-05-10T02:17:11.076Z,230.09
2023-05-10T02:18:11.112Z,231.04
2023-05-10T02:19:11.176Z,230.04
2023-05-10T02:20:11.226Z,229.17
2023-05-10T02:21:11.244Z,230.40
2023-05-10T02:22:11.314Z,230.70
2023-05-10T02:23:11.357Z,231.99
2023-05-10T02:24:11.378Z,232.34
2023-05-10T02:25:11.427Z,230.17
2023-05-10T02:26:11.449Z,228.67
2023-05-10T02:27:11.512Z,229.95
2023-05-10T02:28:11.550Z,233.48
2023-05-10T02:29:11.618Z,230.10
2023-05-10T02:30:11.629Z,229.47
2023-05-10T02:31:11.664Z,231.16
2023-05-10T02:32:11.796Z,231.68
2023-05-10T02:33:11.747Z,229.99
2023-05-10T02:34:11.792Z,232.43
2023-05-10T02:35:11.816Z,231.15
2023-05-10T02:36:11.886Z,232.14
2023-05-10T02:37:11.920Z,228.40
2023-05-10T02:38:11.970Z,228.00
2023-05-10T02:39:12.000Z,230.76
2023-05-10T02:40:12.051Z,230.01
2023-05-10T02:41:12.092Z,227.91
2023-05-10T02:42:12.148Z,229.43
2023-05-10T02:43:12.213Z,231.24
2023-05-10T02:44:12.224Z,227.87
2023-05-10T02:45:12.261Z,226.00
2023-05-10T02:46:12.315Z,224.72
2023-05-10T02:47:12.344Z,227.77
2023-05-10T02:48:12.431Z,225.94
2023-05-10T02:49:12.417Z,225.19
2023-05-10T02:50:12.460Z,225.44
2023-05-10T02:51:12.488Z,225.65
2023-05-10T02:52:12.531Z,227.39
2023-05-10T02:53:12.613Z,225.57
2023-05-10T02:54:12.637Z,229.14
2023-05-10T02:55:12.679Z,224.87
2023-05-10T02:56:12.729Z,226.80
2023-05-10T02:57:12.784Z,224.16
2023-05-10T02:58:12.799Z,225.67
2023-05-10T02:59:12.840Z,222.85
2023-05-10T03:00:12.939Z,222.44
2023-05-10T03:01:12.956Z,222.83
2023-05-10T03:02:12.978Z,223.11
2023-05-10T03:03:13.023Z,217.32
2023-05-10T03:04:13.066Z,217.49
2023-05-10T03:05:13.093Z,218.47
2023-05-10T03:06:13.182Z,217.76
2023-05-10T03:07:13.186Z,224.35
2023-05-10T03:08:13.271Z,223.77
2023-05-10T03:09:13.290Z,221.85
2023-05-10T03:10:13.331Z,220.77
2023-05-10T03:11:13.377Z,221.20
2023-05-10T03:12:13.410Z,221.70
2023-05-10T03:13:13.516Z,219.23
2023-05-10T03:14:13.538Z,216.34
2023-05-10T03:15:13.568Z,218.63
2023-05-10T03:16:13.647Z,219.54
2023-05-10T03:17:13.641Z,221.78
2023-05-10T03:18:13.739Z,223.68
2023-05-10T03:19:13.758Z,221.96
2023-05-10T03:20:13.862Z,220.42
2023-05-10T03:21:13.850Z,219.44
2023-05-10T03:22:13.879Z,221.34
2023-05-10T03:23:13.950Z,217.31
2023-05-10T03:24:13.980Z,220.71
2023-05-10T03:25:14.035Z,223.19
2023-05-10T03:26:14.136Z,225.11
2023-05-10T03:27:14.125Z,218.97
2023-05-10T03:28:14.217Z,220.39
2023-05-10T03:29:14.257Z,221.77
2023-05-10T03:30:14.409Z,221.54
2023-05-10T03:31:14.355Z,222.23
2023-05-10T03:32:14.383Z,219.50
2023-05-10T03:33:14.424Z,221.01
2023-05-10T03:34:14.465Z,219.20
2023-05-10T03:35:14.518Z,222.79
2023-05-10T03:36:14.563Z,223.74
2023-05-10T03:37:14.608Z,223.35
2023-05-10T03:38:14.669Z,223.49
2023-05-10T03:39:14.752Z,224.03
2023-05-10T03:40:14.878Z,224.32
2023-05-10T03:41:14.810Z,221.78
2023-05-10T03:42:14.845Z,223.72
2023-05-10T03:43:14.919Z,221.84
2023-05-10T03:44:15.027Z,225.37
2023-05-10T03:45:15.035Z,228.47
2023-05-10T03:46:15.125Z,223.62
2023-05-10T03:47:15.128Z,226.40
2023-05-10T03:48:15.156Z,222.33
2023-05-10T03:49:15.190Z,225.68
2023-05-10T03:50:15.459Z,224.43
2023-05-10T03:51:15.291Z,225.24
2023-05-10T03:52:15.341Z,227.30
2023-05-10T03:53:15.403Z,225.29
2023-05-10T03:54:15.460Z,225.24
2023-05-10T03:55:15.498Z,225.90
2023-05-10T03:56:15.582Z,225.54
2023-05-10T03:57:15.625Z,222.05
2023-05-10T03:58:15.678Z,225.58
2023-05-10T03:59:15.744Z,221.04
2023-05-10T04:00:16.075Z,223.82
2023-05-10T04:01:15.836Z,225.22
2023-05-10T04:02:15.894Z,223.95
2023-05-10T04:03:15.999Z,223.62
2023-05-10T04:04:16.022Z,220.68
2023-05-10T04:05:16.054Z,221.58
2023-05-10T04:06:16.109Z,218.61
2023-05-10T04:07:16.180Z,220.39
2023-05-10T04:08:16.219Z,220.51
2023-05-10T04:09:16.249Z,221.53
2023-05-10T04:10:16.503Z,222.49
2023-05-10T04:11:16.366Z,221.07
2023-05-10T04:12:16.399Z,221.45
2023-05-10T04:13:16.539Z,218.89
2023-05-10T04:14:16.536Z,217.54
2023-05-10T04:15:16.590Z,219.85
2023-05-10T04:16:16.649Z,220.45
2023-05-10T04:17:16.718Z,215.99
2023-05-10T04:18:16.728Z,216.09
2023-05-10T04:19:16.886Z,217.31
2023-05-10T04:20:17.020Z,216.50
2023-05-10T04:21:16.896Z,213.56
2023-05-10T04:22:16.933Z,216.96
2023-05-10T04:23:16.998Z,214.56
2023-05-10T04:24:17.054Z,217.70
2023-05-10T04:25:17.140Z,219.69
2023-05-10T04:26:17.259Z,217.79
2023-05-10T04:27:17.327Z,216.41
2023-05-10T04:28:17.307Z,216.70
2023-05-10T04:29:17.336Z,214.89
2023-05-10T04:30:17.660Z,216.03
2023-05-10T04:31:17.506Z,216.75
2023-05-10T04:32:17.515Z,212.80
2023-05-10T04:33:17.576Z,218.94
2023-05-10T04:34:17.622Z,217.42
2023-05-10T04:35:17.655Z,217.28
2023-05-10T04:36:17.726Z,214.62
2023-05-10T04:37:17.777Z,218.67
2023-05-10T04:38:17.828Z,215.31
2023-05-10T04:39:17.903Z,215.06
2023-05-10T04:40:18.234Z,211.52
2023-05-10T04:41:17.998Z,211.15
2023-05-10T04:42:18.064Z,215.19
2023-05-10T04:43:18.118Z,218.31
2023-05-10T04:44:18.233Z,215.36
2023-05-10T04:45:18.232Z,215.45
2023-05-10T04:46:18.356Z,213.38
2023-05-10T04:47:18.359Z,217.47
2023-05-10T04:48:18.395Z,216.47
2023-05-10T04:49:18.470Z,216.69
2023-05-10T04:50:18.751Z,216.77
2023-05-10T04:51:18.585Z,216.05
2023-05-10T04:52:18.657Z,214.38
2023-05-10T04:53:18.698Z,216.58
2023-05-10T04:54:18.750Z,214.81
2023-05-10T04:55:18.805Z,213.79
2023-05-10T04:56:18.880Z,213.22
2023-05-10T04:57:18.915Z,217.37
2023-05-10T04:58:19.010Z,217.31
2023-05-10T04:59:19.038Z,210.10
2023-05-10T05:00:19.112Z,211.91
2023-05-10T05:01:19.175Z,206.80
2023-05-10T05:02:19.214Z,201.32
2023-05-10T05:03:19.327Z,198.98
2023-05-10T05:04:19.314Z,200.54
2023-05-10T05:05:19.362Z,190.78
2023-05-10T05:06:19.425Z,194.05
2023-05-10T05:07:19.502Z,205.80
2023-05-10T05:08:19.526Z,209.44
2023-05-10T05:09:19.602Z,214.54
2023-05-10T05:10:19.859Z,211.83
2023-05-10T05:11:19.713Z,210.64
2023-05-10T05:12:19.747Z,207.87
2023-05-10T05:13:19.915Z,213.67
2023-05-10T05:14:19.887Z,218.79
2023-05-10T05:15:19.948Z,218.99
2023-05-10T05:16:20.018Z,220.44
2023-05-10T05:17:20.037Z,219.72
2023-05-10T05:18:20.084Z,217.49
2023-05-10T05:19:20.135Z,215.90
2023-05-10T05:20:20.234Z,215.85
2023-05-10T05:21:20.245Z,217.77
2023-05-10T05:22:20.310Z,221.67
2023-05-10T05:23:20.356Z,209.05
2023-05-10T05:24:20.437Z,206.55
2023-05-10T05:25:20.481Z,208.02
2023-05-10T05:26:20.524Z,210.58
2023-05-10T05:27:20.587Z,210.56
2023-05-10T05:28:20.668Z,212.63
2023-05-10T05:29:20.689Z,215.30
2023-05-10T05:30:20.762Z,221.86
2023-05-10T05:31:20.827Z,219.53
2023-05-10T05:32:20.872Z,222.38
2023-05-10T05:33:20.918Z,226.38
2023-05-10T05:34:20.970Z,235.55
2023-05-10T05:35:21.009Z,237.63
2023-05-10T05:36:21.047Z,246.19
2023-05-10T05:37:21.090Z,247.80
2023-05-10T05:38:21.150Z,249.03
2023-05-10T05:39:21.194Z,250.00
2023-05-10T05:40:21.230Z,250.17
2023-05-10T05:41:21.273Z,250.57
2023-05-10T05:42:21.334Z,251.40
2023-05-10T05:43:21.348Z,249.46
2023-05-10T05:44:21.403Z,250.19
2023-05-10T05:45:21.443Z,249.99
2023-05-10T05:46:21.481Z,251.72
2023-05-10T05:47:21.476Z,250.00
2023-05-10T05:48:21.511Z,249.71
2023-05-10T05:49:21.987Z,248.78
2023-05-10T05:50:21.529Z,249.58
2023-05-10T05:51:21.549Z,248.80
2023-05-10T05:52:21.548Z,249.64
2023-05-10T05:53:21.544Z,250.00
2023-05-10T05:54:21.974Z,248.80
2023-05-10T05:55:21.563Z,249.75
2023-05-10T05:56:21.568Z,250.00
2023-05-10T05:57:21.576Z,249.99
2023-05-10T05:58:21.588Z,248.16
2023-05-10T05:59:21.578Z,246.74
2023-05-10T06:00:21.592Z,227.31
2023-05-10T06:01:21.597Z,205.59
2023-05-10T06:02:21.738Z,193.98
2023-05-10T06:03:21.766Z,188.59
2023-05-10T06:04:21.702Z,182.88
2023-05-10T06:05:21.713Z,177.43
2023-05-10T06:06:21.767Z,172.90
2023-05-10T06:07:21.816Z,170.69
2023-05-10T06:08:21.879Z,167.25
2023-05-10T06:09:21.932Z,170.71
2023-05-10T06:10:21.957Z,179.97
2023-05-10T06:11:22.040Z,187.19
2023-05-10T06:12:22.052Z,198.77
2023-05-10T06:13:22.203Z,209.73
2023-05-10T06:14:22.189Z,211.78
2023-05-10T06:15:22.497Z,217.74
2023-05-10T06:16:22.270Z,215.12
2023-05-10T06:17:22.305Z,218.44
2023-05-10T06:18:22.319Z,221.55
2023-05-10T06:19:22.500Z,226.94
2023-05-10T06:20:22.508Z,230.63
2023-05-10T06:21:22.400Z,232.90
2023-05-10T06:22:22.411Z,235.71
2023-05-10T06:23:22.436Z,235.03
2023-05-10T06:24:22.440Z,237.49
2023-05-10T06:25:22.467Z,239.71
2023-05-10T06:26:22.449Z,240.81
2023-05-10T06:27:22.535Z,240.00
2023-05-10T06:28:22.561Z,242.33
2023-05-10T06:29:22.460Z,245.79
2023-05-10T06:30:22.520Z,248.61
2023-05-10T06:31:22.479Z,245.63
2023-05-10T06:32:22.464Z,245.69
2023-05-10T06:33:22.483Z,246.11
2023-05-10T06:34:23.043Z,246.27
2023-05-10T06:35:22.561Z,245.11
2023-05-10T06:36:22.585Z,245.49
2023-05-10T06:37:22.696Z,246.76
2023-05-10T06:38:22.689Z,246.65
2023-05-10T06:39:22.763Z,247.34
2023-05-10T06:40:22.810Z,249.32
2023-05-10T06:41:24.739Z,249.54
2023-05-10T06:42:22.944Z,249.58
2023-05-10T06:43:22.974Z,249.15
2023-05-10T06:44:23.048Z,248.39
2023-05-10T06:45:23.135Z,249.68
2023-05-10T06:46:23.183Z,248.05
2023-05-10T06:47:23.207Z,247.52
2023-05-10T06:48:23.305Z,248.01
2023-05-10T06:49:23.300Z,246.77
2023-05-10T06:50:23.349Z,246.30
2023-05-10T06:51:23.414Z,247.27
2023-05-10T06:52:23.492Z,246.31
2023-05-10T06:53:23.501Z,247.22
2023-05-10T06:54:23.538Z,247.66
2023-05-10T06:55:23.605Z,247.71
2023-05-10T06:56:23.651Z,248.12
2023-05-10T06:57:31.678Z,247.60
2023-05-10T06:58:24.684Z,247.71
2023-05-10T06:59:24.090Z,247.68
2023-05-10T07:00:23.760Z,248.01
2023-05-10T07:01:23.740Z,247.80
2023-05-10T07:02:23.649Z,248.59
2023-05-10T07:03:23.672Z,249.45
2023-05-10T07:04:23.673Z,248.79
2023-05-10T07:05:23.662Z,248.55
2023-05-10T07:06:33.067Z,248.65
2023-05-10T07:07:24.603Z,248.76
2023-05-10T07:08:23.614Z,248.82
2023-05-10T07:09:23.603Z,249.90
2023-05-10T07:10:23.619Z,249.55
2023-05-10T07:11:23.598Z,247.45
2023-05-10T07:12:23.632Z,245.15
2023-05-10T07:13:23.716Z,247.34
2023-05-10T07:14:23.589Z,246.77
2023-05-10T07:15:23.559Z,247.76
2023-05-10T07:16:23.693Z,246.52
2023-05-10T07:17:23.583Z,248.18
2023-05-10T07:18:23.617Z,248.99
2023-05-10T07:19:23.601Z,249.10
2023-05-10T07:20:23.701Z,250.00
2023-05-10T07:21:23.664Z,249.76
2023-05-10T07:22:23.679Z,250.00
2023-05-10T07:23:23.738Z,250.00
2023-05-10T07:24:23.740Z,249.63
2023-05-10T07:25:23.777Z,248.20
2023-05-10T07:26:23.843Z,247.24
2023-05-10T07:27:23.886Z,248.30
2023-05-10T07:28:23.908Z,248.03
2023-05-10T07:29:23.939Z,247.31
2023-05-10T07:30:24.034Z,244.21
2023-05-10T07:31:24.009Z,245.49
2023-05-10T07:32:24.595Z,246.10
2023-05-10T07:33:24.163Z,243.62
2023-05-10T07:34:24.136Z,241.08
2023-05-10T07:35:24.186Z,242.19
2023-05-10T07:36:24.243Z,242.62
2023-05-10T07:37:24.251Z,238.52
2023-05-10T07:38:24.301Z,238.75
2023-05-10T07:39:27.662Z,238.19
2023-05-10T07:40:24.315Z,235.21
2023-05-10T07:41:24.319Z,228.64
2023-05-10T07:42:24.333Z,224.77
2023-05-10T07:43:24.298Z,227.12
2023-05-10T07:44:24.296Z,228.62
2023-05-10T07:45:24.291Z,232.46
2023-05-10T07:46:24.438Z,234.70
2023-05-10T07:47:24.284Z,238.27
2023-05-10T07:48:24.337Z,236.77
2023-05-10T07:49:24.535Z,236.68
2023-05-10T07:50:24.525Z,238.42
2023-05-10T07:51:24.272Z,239.99
2023-05-10T07:52:24.238Z,234.74
2023-05-10T07:53:24.232Z,235.23
2023-05-10T07:54:24.564Z,229.26
2023-05-10T07:55:24.533Z,223.10
2023-05-10T07:56:24.192Z,216.07
2023-05-10T07:57:24.269Z,209.03
2023-05-10T07:58:24.187Z,205.90
2023-05-10T07:59:24.238Z,199.77
2023-05-10T08:00:24.527Z,194.43
2023-05-10T08:01:24.182Z,191.14
2023-05-10T08:02:24.177Z,189.51
2023-05-10T08:03:24.219Z,188.19
2023-05-10T08:04:24.247Z,184.69
2023-05-10T08:05:24.137Z,184.27
2023-05-10T08:06:24.150Z,184.95
2023-05-10T08:07:24.141Z,183.83
2023-05-10T08:08:24.122Z,183.28
2023-05-10T08:09:24.108Z,183.69
2023-05-10T08:10:24.108Z,184.16
2023-05-10T08:11:24.128Z,186.84
2023-05-10T08:12:24.111Z,187.75
2023-05-10T08:13:24.071Z,187.01
2023-05-10T08:14:24.064Z,185.60
2023-05-10T08:15:24.534Z,185.95
2023-05-10T08:16:24.211Z,186.69
2023-05-10T08:17:24.754Z,185.82
2023-05-10T08:18:24.287Z,184.93
2023-05-10T08:19:24.306Z,183.99
2023-05-10T08:20:24.558Z,183.22
2023-05-10T08:21:24.409Z,182.49
2023-05-10T08:22:24.499Z,182.92
2023-05-10T08:23:24.546Z,183.18
2023-05-10T08:24:24.639Z,187.23
2023-05-10T08:25:24.648Z,189.16
2023-05-10T08:26:24.703Z,187.20
2023-05-10T08:27:24.800Z,187.55
2023-05-10T08:28:24.820Z,188.35
2023-05-10T08:29:26.614Z,187.25
2023-05-10T08:30:24.949Z,188.03
2023-05-10T08:31:25.049Z,187.02
2023-05-10T08:32:25.110Z,186.90
2023-05-10T08:33:25.117Z,186.44
2023-05-10T08:34:25.369Z,185.04
2023-05-10T08:35:25.243Z,185.62
2023-05-10T08:36:25.357Z,184.44
2023-05-10T08:37:25.386Z,184.35
2023-05-10T08:38:25.442Z,190.38
2023-05-10T08:39:30.437Z,195.89
2023-05-10T08:40:26.484Z,196.09
2023-05-10T08:41:25.530Z,197.33
2023-05-10T08:42:25.464Z,200.85
2023-05-10T08:43:25.448Z,206.83
2023-05-10T08:44:25.501Z,214.35
2023-05-10T08:45:25.556Z,215.95
2023-05-10T08:46:25.517Z,216.57
2023-05-10T08:47:25.480Z,216.46
2023-05-10T08:48:25.417Z,217.05
2023-05-10T08:49:25.415Z,218.55
2023-05-10T08:50:25.466Z,221.33
2023-05-10T08:51:25.512Z,222.57
2023-05-10T08:52:25.557Z,222.53
2023-05-10T08:53:25.615Z,222.95
2023-05-10T08:54:25.658Z,222.52
2023-05-10T08:55:25.689Z,222.29
2023-05-10T08:56:25.728Z,223.81
2023-05-10T08:57:25.799Z,221.77
2023-05-10T08:58:25.816Z,223.87
2023-05-10T08:59:25.868Z,224.32
2023-05-10T09:00:25.914Z,224.31
2023-05-10T09:01:26.009Z,224.80
2023-05-10T09:02:26.043Z,224.42
2023-05-10T09:03:26.025Z,224.50
2023-05-10T09:04:26.186Z,226.53
2023-05-10T09:05:26.159Z,225.56
2023-05-10T09:06:26.171Z,226.84
2023-05-10T09:07:26.200Z,226.55
2023-05-10T09:08:26.375Z,227.87
2023-05-10T09:09:26.297Z,228.77
2023-05-10T09:10:26.575Z,229.15
2023-05-10T09:11:26.383Z,228.94
2023-05-10T09:12:26.414Z,228.10
2023-05-10T09:13:26.465Z,229.14
2023-05-10T09:14:26.503Z,229.97
2023-05-10T09:15:27.175Z,229.48
2023-05-10T09:16:26.605Z,229.25
2023-05-10T09:17:26.684Z,227.81
2023-05-10T09:18:28.007Z,228.61
2023-05-10T09:19:26.691Z,228.95
2023-05-10T09:20:27.080Z,228.55
2023-05-10T09:21:26.761Z,228.43
2023-05-10T09:22:26.818Z,227.93
2023-05-10T09:23:26.844Z,228.76
2023-05-10T09:24:26.877Z,227.63
2023-05-10T09:25:27.085Z,227.97
2023-05-10T09:26:26.961Z,225.58
2023-05-10T09:27:27.002Z,215.21
2023-05-10T09:28:27.056Z,214.86
2023-05-10T09:29:27.092Z,204.69
2023-05-10T09:30:27.571Z,204.76
2023-05-10T09:31:27.288Z,198.49
2023-05-10T09:32:27.294Z,194.85
2023-05-10T09:33:27.250Z,190.35
2023-05-10T09:34:27.278Z,185.65
2023-05-10T09:35:29.685Z,182.53
2023-05-10T09:36:27.334Z,185.77
2023-05-10T09:37:27.328Z,186.34
2023-05-10T09:38:27.321Z,183.65
2023-05-10T09:39:27.300Z,183.25
2023-05-10T09:40:27.334Z,174.75
2023-05-10T09:41:27.310Z,172.62
2023-05-10T09:42:27.282Z,170.22
2023-05-10T09:43:27.283Z,168.07
2023-05-10T09:44:27.282Z,171.04
2023-05-10T09:45:27.595Z,172.40
2023-05-10T09:46:27.313Z,174.05
2023-05-10T09:47:27.299Z,177.53
2023-05-10T09:48:27.266Z,183.48
2023-05-10T09:49:27.264Z,184.91
2023-05-10T09:50:27.574Z,185.71
2023-05-10T09:51:27.211Z,188.70
2023-05-10T09:52:27.214Z,192.82
2023-05-10T09:53:27.210Z,188.95
2023-05-10T09:54:27.182Z,190.35
2023-05-10T09:55:27.215Z,190.21
2023-05-10T09:56:27.367Z,188.99
2023-05-10T09:57:27.193Z,188.02
2023-05-10T09:58:27.168Z,191.11
2023-05-10T09:59:27.152Z,187.79
2023-05-10T10:00:27.159Z,187.76
2023-05-10T10:01:27.234Z,184.74
2023-05-10T10:02:27.174Z,188.87
2023-05-10T10:03:29.666Z,188.98
2023-05-10T10:04:27.192Z,189.07
2023-05-10T10:05:27.147Z,183.14
2023-05-10T10:06:30.458Z,188.43
2023-05-10T10:07:27.111Z,189.25
2023-05-10T10:08:27.092Z,189.19
2023-05-10T10:09:27.098Z,186.04
2023-05-10T10:10:27.085Z,153.92
2023-05-10T10:11:27.093Z,135.11
2023-05-10T10:12:27.064Z,117.03
2023-05-10T10:13:27.078Z,104.51
2023-05-10T10:14:27.056Z,99.60
2023-05-10T10:15:27.081Z,90.08
2023-05-10T10:16:27.223Z,83.40
2023-05-10T10:17:27.102Z,79.06
2023-05-10T10:18:27.055Z,80.85
2023-05-10T10:19:27.022Z,91.43
2023-05-10T10:20:27.012Z,103.78
2023-05-10T10:21:27.004Z,113.53
2023-05-10T10:22:27.012Z,122.41
2023-05-10T10:23:27.020Z,127.68
2023-05-10T10:24:26.992Z,132.13
2023-05-10T10:25:26.988Z,116.39
2023-05-10T10:26:27.106Z,123.91
2023-05-10T10:27:26.963Z,113.36
2023-05-10T10:28:28.245Z,109.72
2023-05-10T10:29:26.957Z,101.45
2023-05-10T10:30:26.972Z,99.76
2023-05-10T10:31:26.987Z,97.91
2023-05-10T10:32:26.958Z,96.79
2023-05-10T10:33:28.823Z,94.57
2023-05-10T10:34:26.924Z,92.09
2023-05-10T10:35:26.913Z,88.47
2023-05-10T10:36:27.110Z,89.78
2023-05-10T10:37:26.884Z,87.58
2023-05-10T10:38:26.897Z,80.88
2023-05-10T10:39:26.874Z,81.84
2023-05-10T10:40:26.876Z,80.78
2023-05-10T10:41:26.869Z,80.28
2023-05-10T10:42:26.845Z,78.28
2023-05-10T10:43:26.933Z,73.22
2023-05-10T10:44:26.952Z,69.84
2023-05-10T10:45:26.836Z,66.99
2023-05-10T10:46:26.916Z,63.39
2023-05-10T10:47:26.846Z,63.11
2023-05-10T10:48:26.797Z,60.36
2023-05-10T10:49:26.814Z,62.27
2023-05-10T10:50:26.806Z,59.35
2023-05-10T10:51:26.814Z,60.06
2023-05-10T10:52:26.897Z,62.56
2023-05-10T10:53:26.912Z,62.13
2023-05-10T10:54:26.894Z,62.75
2023-05-10T10:55:26.931Z,58.35
2023-05-10T10:56:26.918Z,60.92
2023-05-10T10:57:26.948Z,57.15
2023-05-10T10:58:27.000Z,56.41
2023-05-10T10:59:27.025Z,58.15
2023-05-10T11:00:27.070Z,57.73
2023-05-10T11:01:27.146Z,63.45
2023-05-10T11:02:27.112Z,67.55
2023-05-10T11:03:27.126Z,64.27
2023-05-10T11:04:27.158Z,60.59
2023-05-10T11:05:27.152Z,56.79
2023-05-10T11:06:27.177Z,59.05
2023-05-10T11:07:27.203Z,55.10
2023-05-10T11:08:27.198Z,52.33
2023-05-10T11:09:27.256Z,50.78
2023-05-10T11:10:27.269Z,50.12
2023-05-10T11:11:27.288Z,48.40
2023-05-10T11:12:27.343Z,43.82
2023-05-10T11:13:27.353Z,43.40
2023-05-10T11:14:27.408Z,47.55
2023-05-10T11:15:27.448Z,44.18
2023-05-10T11:16:27.560Z,47.12
2023-05-10T11:17:27.589Z,49.60
2023-05-10T11:18:27.615Z,55.55
2023-05-10T11:19:27.686Z,75.76
2023-05-10T11:20:27.730Z,87.10
2023-05-10T11:21:27.802Z,98.82
2023-05-10T11:22:27.828Z,114.41
2023-05-10T11:23:27.900Z,128.42
2023-05-10T11:24:27.918Z,135.28
2023-05-10T11:25:27.981Z,147.86
2023-05-10T11:26:28.053Z,160.67
2023-05-10T11:27:28.034Z,164.17
2023-05-10T11:28:28.085Z,166.63
2023-05-10T11:29:28.099Z,154.16
2023-05-10T11:30:28.131Z,133.60
2023-05-10T11:31:28.203Z,114.86
2023-05-10T11:32:28.214Z,94.98
2023-05-10T11:33:28.240Z,72.86
2023-05-10T11:34:28.271Z,55.73
2023-05-10T11:35:28.344Z,38.66
2023-05-10T11:36:28.393Z,29.70
2023-05-10T11:37:28.392Z,27.68
2023-05-10T11:38:28.401Z,27.81
2023-05-10T11:39:28.422Z,38.38
2023-05-10T11:40:28.392Z,49.67
2023-05-10T11:41:28.512Z,49.77
2023-05-10T11:42:28.585Z,57.33
2023-05-10T11:43:28.616Z,55.65
2023-05-10T11:44:28.684Z,67.84
2023-05-10T11:45:28.721Z,77.12
2023-05-10T11:46:28.871Z,84.93
2023-05-10T11:47:28.893Z,86.67
2023-05-10T11:48:28.931Z,87.38
2023-05-10T11:49:28.983Z,96.72
2023-05-10T11:50:28.998Z,95.77
2023-05-10T11:51:29.042Z,100.70
2023-05-10T11:52:29.078Z,99.84
2023-05-10T11:53:29.121Z,104.67
2023-05-10T11:54:29.180Z,104.88
2023-05-10T11:55:29.175Z,105.69
2023-05-10T11:56:29.212Z,107.01
2023-05-10T11:57:29.261Z,108.38
2023-05-10T11:58:29.294Z,109.73
2023-05-10T11:59:29.331Z,111.43
2023-05-10T12:00:29.360Z,111.88
2023-05-10T12:01:29.383Z,115.36
2023-05-10T12:02:29.475Z,116.63
2023-05-10T12:03:29.522Z,113.84
2023-05-10T12:04:29.544Z,117.64
2023-05-10T12:05:29.470Z,115.92
2023-05-10T12:06:29.675Z,119.93
2023-05-10T12:07:29.528Z,115.48
2023-05-10T12:08:29.536Z,117.61
2023-05-10T12:10:29.546Z,118.09
2023-05-10T12:11:29.687Z,115.41
2023-05-10T12:12:29.546Z,110.00
2023-05-10T12:13:29.520Z,111.40
2023-05-10T12:14:29.541Z,109.44
2023-05-10T12:15:29.536Z,105.71
2023-05-10T12:16:29.726Z,110.19
2023-05-10T12:17:29.526Z,111.10
2023-05-10T12:18:29.644Z,111.56
2023-05-10T12:19:29.531Z,112.52
2023-05-10T12:20:29.468Z,112.13
2023-05-10T12:21:29.475Z,110.71
2023-05-10T12:22:29.463Z,111.00
2023-05-10T12:23:29.469Z,112.75
2023-05-10T12:24:29.455Z,115.48
2023-05-10T12:25:29.435Z,113.57
2023-05-10T12:26:29.442Z,114.99
2023-05-10T12:27:29.413Z,111.79
2023-05-10T12:28:29.442Z,115.42
2023-05-10T12:29:29.417Z,112.99
2023-05-10T12:30:29.419Z,114.12
2023-05-10T12:31:29.544Z,114.86